• Join FlightAware (Why Join?)
  • Login
  • US Flag 
05:33AM EST


 

Airport Tracker/Info


-or-


 

Live Flight TrackerFlight Track Log ✈ N417JT ✈ 24-Aug-2014 ✈ KGNV - KPIE

Flight Track Log - Related Links

Times and Time Zones

All times are in EDT time to prevent confusion due to time zone crossing. See the N417JT flight status page for this flight to view local times or setup timezone preferences in your user account.

Time Position Orientation Groundspeed Altitude Reporting Facility
EDT Latitude Longitude Course Direction KTS MPH feet Rate Location/Type
03:53PM 29.7219 -82.2253 322° Northwest 121 139 1,200  Level Jacksonville Center
03:54PM 29.7431 -82.2444 322° Northwest 163 188 1,800 540 Climbing Jacksonville Center
03:55PM 29.7161 -82.2875 234° Southwest 168 193 2,400 600 Climbing Jacksonville Center
03:56PM 29.6847 -82.3258 227° Southwest 153 176 3,100 540 Climbing Jacksonville Center
03:59PM 29.6247 -82.4003 227° Southwest 145 167 4,200 480 Climbing Jacksonville Center
04:00PM 29.5914 -82.4292 217° Southwest 153 176 4,700 360 Climbing Jacksonville Center
04:01PM 29.5600 -82.4581 219° Southwest 159 183 4,900 60 Climbing Jacksonville Center
04:02PM 29.5206 -82.4869 213° Southwest 165 190 4,900  Level Jacksonville Center
04:04PM 29.4122 -82.5708 186° South 156 180 4,900  Level Jacksonville Center
04:06PM 29.3425 -82.6081 184° South 168 193 4,900  Level Miami Center
04:07PM 29.2986 -82.6067 178° South 163 188 4,900  Level Miami Center
04:08PM 29.3026 -82.5795 184° South  Level Estimated
04:08PM 29.2553 -82.6053 178° South 159 183 4,900  Level Miami Center
04:09PM 29.2125 -82.6053 180° South 158 182 4,900  Level Miami Center
04:10PM 29.1678 -82.6067 182° South 158 182 4,900  Level Miami Center
04:12PM 29.1596 -82.5324 186° South  Level Estimated
04:12PM 29.1097 -82.6122 185° South 161 185 4,900  Level Jacksonville Center
04:14PM 29.0242 -82.6083 178° South 161 185 5,000  Climbing Miami Center
04:15PM 28.9739 -82.6103 182° South 150 173 5,000  Level Jacksonville Center
04:16PM 28.9258 -82.6078 177° South 154 177 5,000  Level Jacksonville Center
04:17PM 28.8822 -82.6081 180° South 160 184 5,000  Level Jacksonville Center
04:19PM 28.7986 -82.6192 187° South 159 183 5,000  Level Miami Center
04:20PM 28.7547 -82.6347 197° South 160 184 5,000  Level Miami Center
04:21PM 28.6833 -82.6500 191° South 162 186 5,000 -240 Level Tampa TRACON
04:23PM 28.6333 -82.6833 210° Southwest 161 185 4,400 -480 Descending Tampa TRACON
04:24PM 28.5817 -82.6911 188° South 163 188 3,900 -540 Descending Miami Center
04:25PM 28.5306 -82.7092 197° South 163 188 3,300 -480 Descending Miami Center
04:26PM 28.5000 -82.7167 192° South 160 184 3,100 -180 Descending Tampa TRACON
04:27PM 28.4500 -82.7333 196° South 153 176 3,000 -60 Descending Tampa TRACON
04:27PM 28.4333 -82.7500 221° Southwest 152 175 3,000  Level Tampa TRACON
04:28PM 28.3833 -82.7667 196° South 148 170 3,000  Level Tampa TRACON
04:29PM 28.3683 -82.7658 177° South 152 175 3,000  Level Miami Center
04:29PM 28.3500 -82.7833 220° Southwest 148 170 3,000  Level Tampa TRACON
04:30PM 28.3000 -82.7833 180° South 152 175 3,000  Level Tampa TRACON
04:31PM 28.2667 -82.8000 204° Southwest 153 176 3,000  Level Tampa TRACON
04:32PM 28.2167 -82.8000 180° South 155 178 3,000  Level Tampa TRACON
04:34PM 28.1514 -82.7981 178° South 155 178 3,000  Level Miami Center
04:35PM 28.1081 -82.7972 179° South 155 178 3,000 -120 Level Miami Center
04:37PM 28.0167 -82.8000 182° South 154 177 2,700 -180 Descending Tampa TRACON
04:38PM 27.9667 -82.7833 164° South 155 178 2,600 -60 Descending Tampa TRACON
04:39PM 27.9333 -82.7833 180° South 151 174 2,600 -60 Level Tampa TRACON
04:40PM 27.9000 -82.7667 156° South 151 174 2,500 -480 Descending Tampa TRACON
04:42PM 27.8667 -82.7167 127° Southeast 136 157 1,400 -840 Descending Tampa TRACON
04:43PM 27.8833 -82.6833 60° Northeast 122 140 600 -900 Descending Tampa TRACON
04:47PM 27.9100 -82.6875 352° North  Level Estimated